»·PEaware :: ANW780 cyul-klax

ANW780 :: cyul-klax

FLIGHT INFORMATION

Flight Status: Arrived
Operator:
Air Northwest (website)
More flights by this operator :: More flights under this callsign
Pilot: Tim H. (59)
Aircraft: BOEING 777-200
(b772)
More flights by this aircraft type
Origin: cyul Montréal-Trudeau
Canada
Destination: klax Los Angeles Intl
United States
More flights between these airports :: More routes between these airports
Route: cyul klax
File this flight plan on PilotEdge
Remarks: 1st time user
Altitude:
(Current/Filed)
41,000ft
Speed:
(Current/Filed)
460kts
Departed: 20-Mar-11 06:00 AM
Arrived: 20-Mar-11 09:34 AM
Distance/Time
Traveled:
2143nm/3:33
Distance/Time
To Go:
Arrived

Flight Plot

Page will automatically refresh every two minutes.


Map Options




Map Legend


Flown Route
Filed Route
Departure Airport
Arrival Airport
Navaid (VOR, NDB)
Fix

Horizontal Profiles

Position Reports

Time Latitude Longitude Heading Altitude Ground
Speed
20-Mar-11 05:58 43.188643 -86.569625 265 40776ft 513kts
20-Mar-11 05:59 43.181821 -86.764684 265 40778ft 513kts
20-Mar-11 06:01 43.167176 -87.154532 265 40781ft 513kts
20-Mar-11 06:02 43.159378 -87.349631 263 40651ft 516kts
20-Mar-11 06:03 43.151175 -87.542852 261 40647ft 515kts
20-Mar-11 06:04 43.142581 -87.738049 261 40649ft 514kts
20-Mar-11 06:05 43.133752 -87.933069 260 40650ft 513kts
20-Mar-11 06:06 43.124618 -88.127536 260 40652ft 512kts
20-Mar-11 06:07 43.117109 -88.321983 268 40646ft 518kts
20-Mar-11 06:08 43.120842 -88.513729 266 40662ft 516kts
20-Mar-11 06:09 43.123596 -88.709043 267 40658ft 514kts
20-Mar-11 06:10 43.126200 -88.904105 268 40659ft 513kts
20-Mar-11 06:11 43.128443 -89.098163 269 40669ft 507kts
20-Mar-11 06:12 43.130358 -89.289987 269 40670ft 502kts
20-Mar-11 06:13 43.131932 -89.480775 270 40670ft 499kts
20-Mar-11 06:14 43.132978 -89.665126 268 40619ft 504kts
20-Mar-11 06:15 43.133925 -89.858091 267 40618ft 508kts
20-Mar-11 06:16 43.134527 -90.050786 267 40565ft 511kts
20-Mar-11 06:17 43.134823 -90.247093 268 40562ft 518kts
20-Mar-11 06:18 43.134800 -90.444464 268 40564ft 521kts
20-Mar-11 06:19 43.134254 -90.637096 268 40518ft 523kts
20-Mar-11 06:20 43.133540 -90.835648 268 40509ft 523kts
20-Mar-11 06:21 43.132484 -91.034977 268 40510ft 523kts
20-Mar-11 06:22 43.131088 -91.233163 268 40489ft 523kts
20-Mar-11 06:23 43.129356 -91.430458 268 40473ft 516kts
20-Mar-11 06:24 43.127169 -91.620807 267 40467ft 513kts
20-Mar-11 06:25 43.124797 -91.815550 267 40445ft 514kts
20-Mar-11 06:26 43.122190 -92.004875 266 40431ft 520kts
20-Mar-11 06:27 43.119103 -92.203425 266 40432ft 523kts
20-Mar-11 06:28 43.115667 -92.402389 265 40428ft 525kts
20-Mar-11 06:29 43.111780 -92.596127 265 40398ft 522kts
20-Mar-11 06:30 43.108400 -92.761324 265 40398ft 521kts
20-Mar-11 06:31 43.104036 -92.958675 265 40400ft 520kts
20-Mar-11 06:32 43.099280 -93.159231 263 40342ft 521kts
20-Mar-11 06:33 43.093240 -93.356607 255 40332ft 514kts
20-Mar-11 06:34 43.074570 -93.547481 255 40335ft 513kts
20-Mar-11 06:35 43.056208 -93.740511 255 40338ft 512kts
20-Mar-11 06:36 43.037600 -93.933337 255 40340ft 512kts
20-Mar-11 06:37 43.018722 -94.125525 255 40341ft 511kts
20-Mar-11 06:38 42.999476 -94.317839 256 40284ft 512kts
20-Mar-11 06:39 42.980215 -94.507357 256 40283ft 512kts
20-Mar-11 06:40 42.960146 -94.699520 256 40277ft 512kts
20-Mar-11 06:41 42.940023 -94.890843 256 40278ft 508kts
20-Mar-11 06:42 42.919697 -95.080867 256 40279ft 505kts
20-Mar-11 06:43 42.899228 -95.269208 256 40279ft 503kts
20-Mar-11 06:44 42.878272 -95.458389 259 40254ft 509kts
20-Mar-11 06:45 42.857209 -95.644913 260 40246ft 503kts
20-Mar-11 06:46 42.835921 -95.832081 261 40247ft 497kts
20-Mar-11 06:47 42.814531 -96.017446 260 40220ft 498kts
20-Mar-11 06:48 42.792667 -96.203962 260 40218ft 500kts
20-Mar-11 06:49 42.770446 -96.390796 260 40219ft 500kts
20-Mar-11 06:50 42.748160 -96.573802 259 40214ft 497kts
20-Mar-11 06:51 42.725594 -96.758379 259 40216ft 495kts
20-Mar-11 06:52 42.702731 -96.942762 259 40216ft 493kts
20-Mar-11 06:53 42.679690 -97.126075 259 40217ft 494kts
20-Mar-11 06:54 42.656242 -97.310159 259 40218ft 495kts
20-Mar-11 06:55 42.632467 -97.494351 259 40219ft 496kts
20-Mar-11 06:56 42.608588 -97.675400 258 40215ft 496kts
20-Mar-11 06:57 42.584175 -97.859727 258 40216ft 496kts
20-Mar-11 06:58 42.559081 -98.046746 258 40217ft 497kts
20-Mar-11 06:59 42.534213 -98.229784 258 40160ft 493kts
20-Mar-11 07:00 42.509173 -98.411743 258 40157ft 489kts
20-Mar-11 07:01 42.484227 -98.589343 257 40154ft 487kts
20-Mar-11 07:02 42.439032 -98.756910 237 40206ft 477kts
20-Mar-11 07:03 42.371416 -98.909027 237 40163ft 471kts
20-Mar-11 07:04 42.304713 -99.057604 237 40167ft 468kts
20-Mar-11 07:05 42.237075 -99.207485 237 40166ft 467kts
20-Mar-11 07:06 42.169368 -99.356724 237 40166ft 467kts
20-Mar-11 07:07 42.101563 -99.505432 237 40165ft 466kts
20-Mar-11 07:08 42.034987 -99.650136 237 40156ft 463kts
20-Mar-11 07:09 41.967324 -99.797137 239 40155ft 465kts
20-Mar-11 07:10 41.896950 -99.949249 239 40161ft 496kts
20-Mar-11 07:11 41.823795 -100.106544 239 40201ft 495kts
20-Mar-11 07:12 41.751133 -100.261959 239 40203ft 493kts
20-Mar-11 07:13 41.678187 -100.417179 239 40203ft 492kts
20-Mar-11 07:14 41.606717 -100.567979 238 40206ft 492kts
20-Mar-11 07:15 41.533723 -100.721981 240 40201ft 491kts
20-Mar-11 07:16 41.498233 -100.896650 257 40207ft 489kts
20-Mar-11 07:17 41.466021 -101.072522 257 40163ft 488kts
20-Mar-11 07:18 41.433777 -101.247228 257 40164ft 487kts
20-Mar-11 07:19 41.401163 -101.422315 258 40163ft 487kts
20-Mar-11 07:20 41.368893 -101.592696 258 40244ft 483kts
20-Mar-11 07:21 41.337058 -101.760700 260 40231ft 475kts
20-Mar-11 07:22 41.304648 -101.930219 261 40229ft 472kts
20-Mar-11 07:23 41.272032 -102.099323 262 40227ft 472kts
20-Mar-11 07:24 41.239258 -102.267779 262 40226ft 472kts
20-Mar-11 07:25 41.206152 -102.436479 262 40225ft 472kts
20-Mar-11 07:26 41.174674 -102.594635 261 40295ft 473kts
20-Mar-11 07:27 41.146505 -102.735917 261 40292ft 477kts
20-Mar-11 07:28 41.112398 -102.905662 261 40291ft 478kts
20-Mar-11 07:29 41.043719 -103.056669 232 40322ft 507kts
20-Mar-11 07:30 40.931411 -103.214378 232 40291ft 505kts
20-Mar-11 07:31 40.851014 -103.326208 232 40291ft 505kts
20-Mar-11 07:32 40.754145 -103.460392 232 40291ft 505kts
20-Mar-11 07:33 40.658330 -103.592153 232 40289ft 508kts
20-Mar-11 07:34 40.560440 -103.726541 232 40289ft 512kts
20-Mar-11 07:35 40.462257 -103.860727 232 40290ft 513kts
20-Mar-11 07:36 40.364757 -103.993561 230 40320ft 476kts
20-Mar-11 07:37 40.276924 -104.112535 223 40332ft 476kts
20-Mar-11 07:38 40.181732 -104.240787 223 40329ft 503kts
20-Mar-11 07:39 40.083089 -104.373274 224 40329ft 513kts
20-Mar-11 07:40 39.985749 -104.503472 223 40293ft 484kts
20-Mar-11 07:41 39.897520 -104.621971 231 40284ft 466kts
20-Mar-11 07:42 39.864543 -104.781768 254 40340ft 463kts
20-Mar-11 07:43 39.833456 -104.945178 255 40292ft 468kts
20-Mar-11 07:44 39.801699 -105.109531 255 40291ft 472kts
20-Mar-11 07:45 39.769792 -105.273289 255 40290ft 475kts
20-Mar-11 07:46 39.737279 -105.438747 256 40307ft 469kts
20-Mar-11 07:47 39.705761 -105.596943 256 40315ft 464kts
20-Mar-11 07:48 39.673477 -105.758749 256 40313ft 462kts
20-Mar-11 07:49 39.641132 -105.919656 256 40282ft 464kts
20-Mar-11 07:50 39.608198 -106.082088 255 40280ft 467kts
20-Mar-11 07:51 39.574946 -106.244830 255 40279ft 468kts
20-Mar-11 07:52 39.541337 -106.408150 254 40419ft 477kts
20-Mar-11 07:53 39.507392 -106.570921 253 40423ft 486kts
20-Mar-11 07:54 39.471844 -106.740685 253 40422ft 491kts
20-Mar-11 07:55 39.435929 -106.910081 252 40391ft 492kts
20-Mar-11 07:56 39.393155 -107.080028 253 40395ft 501kts
20-Mar-11 07:57 39.351247 -107.246748 252 40395ft 505kts
20-Mar-11 07:58 39.307633 -107.419057 252 40395ft 505kts
20-Mar-11 07:59 39.264776 -107.586439 251 40396ft 506kts
20-Mar-11 08:01 39.176413 -107.929542 252 40404ft 499kts
20-Mar-11 08:02 39.132523 -108.098307 250 40406ft 501kts
20-Mar-11 08:03 39.087405 -108.270381 250 40407ft 513kts
20-Mar-11 08:04 39.041225 -108.445393 250 40409ft 520kts
20-Mar-11 08:05 38.995892 -108.615274 250 40376ft 521kts
20-Mar-11 08:06 38.948967 -108.790773 251 40376ft 519kts
20-Mar-11 08:07 38.902089 -108.964853 251 40377ft 518kts
20-Mar-11 08:08 38.854197 -109.141469 251 40377ft 517kts
20-Mar-11 08:09 38.806749 -109.315255 251 40377ft 517kts
20-Mar-11 08:10 38.759129 -109.488497 251 40378ft 516kts
20-Mar-11 08:11 38.712417 -109.656769 249 40336ft 512kts
20-Mar-11 08:12 38.665402 -109.825411 249 40334ft 498kts
20-Mar-11 08:13 38.619048 -109.990775 249 40334ft 493kts
20-Mar-11 08:14 38.572268 -110.156648 250 40334ft 493kts
20-Mar-11 08:15 38.525672 -110.320829 250 40333ft 493kts
20-Mar-11 08:16 38.478839 -110.484820 250 40333ft 493kts
20-Mar-11 08:17 38.432917 -110.643986 250 40335ft 493kts
20-Mar-11 08:18 38.372400 -110.800293 241 40335ft 494kts
20-Mar-11 08:19 38.306464 -110.948412 241 40334ft 494kts
20-Mar-11 08:20 38.238676 -111.100183 241 40334ft 494kts
20-Mar-11 08:21 38.170838 -111.251350 241 40334ft 494kts
20-Mar-11 08:22 38.102677 -111.402523 241 40333ft 494kts
20-Mar-11 08:23 38.037369 -111.546765 239 40349ft 486kts
20-Mar-11 08:24 37.969990 -111.694404 238 40353ft 489kts
20-Mar-11 08:25 37.902516 -111.841975 237 40355ft 485kts
20-Mar-11 08:26 37.837886 -111.982712 236 40354ft 489kts
20-Mar-11 08:27 37.769117 -112.131807 236 40354ft 492kts
20-Mar-11 08:28 37.699998 -112.280980 236 40354ft 493kts
20-Mar-11 08:29 37.617438 -112.416722 227 40356ft 490kts
20-Mar-11 08:30 37.534568 -112.546330 227 40353ft 490kts
20-Mar-11 08:31 37.449996 -112.677678 227 40351ft 490kts
20-Mar-11 08:32 37.365010 -112.809593 226 40204ft 484kts
20-Mar-11 08:33 37.283657 -112.935240 225 40221ft 470kts
20-Mar-11 08:36 37.055653 -113.284956 224 40217ft 454kts
20-Mar-11 08:37 36.976008 -113.406264 224 40215ft 452kts
20-Mar-11 08:38 36.896328 -113.527187 224 40213ft 451kts
20-Mar-11 08:39 36.818897 -113.643928 223 40212ft 450kts
20-Mar-11 08:40 36.739369 -113.763768 223 40210ft 449kts
20-Mar-11 08:41 36.659862 -113.883113 224 40213ft 445kts
20-Mar-11 08:42 36.580031 -114.002430 233 40212ft 470kts
20-Mar-11 08:43 36.493316 -114.131884 232 40215ft 499kts
20-Mar-11 08:44 36.403810 -114.264776 231 40216ft 506kts
20-Mar-11 08:46 36.225898 -114.527372 230 40215ft 505kts
20-Mar-11 08:47 36.138449 -114.655365 230 40215ft 505kts
20-Mar-11 08:48 36.048150 -114.787375 229 40215ft 504kts
20-Mar-11 08:49 35.957509 -114.915849 228 40218ft 504kts
20-Mar-11 08:50 35.863674 -115.043763 228 40215ft 504kts
20-Mar-11 08:51 35.770651 -115.169985 228 39162ft 493kts
20-Mar-11 08:52 35.679608 -115.292917 229 38049ft 484kts
20-Mar-11 08:53 35.593222 -115.409463 230 36917ft 437kts
20-Mar-11 08:54 35.514939 -115.514665 226 35723ft 407kts
20-Mar-11 08:55 35.444231 -115.608993 223 34622ft 398kts
20-Mar-11 08:56 35.369919 -115.708126 221 33446ft 393kts
20-Mar-11 08:57 35.298261 -115.803493 220 32393ft 388kts
20-Mar-11 08:58 35.225506 -115.900010 219 31332ft 395kts
20-Mar-11 08:59 35.147656 -116.002962 221 30262ft 422kts
20-Mar-11 09:01 35.011547 -116.182404 222 28443ft 425kts
20-Mar-11 09:02 34.931608 -116.287312 222 27379ft 421kts
20-Mar-11 09:03 34.853584 -116.389434 222 26354ft 398kts
20-Mar-11 09:04 34.780603 -116.479314 216 25186ft 363kts
20-Mar-11 09:05 34.699928 -116.554887 220 24097ft 373kts
20-Mar-11 09:06 34.620746 -116.629266 220 23037ft 375kts
20-Mar-11 09:07 34.538479 -116.706596 219 21938ft 373kts
20-Mar-11 09:08 34.457271 -116.782732 219 20698ft 368kts
20-Mar-11 09:09 34.377148 -116.857661 219 19302ft 360kts
20-Mar-11 09:10 34.301482 -116.928264 219 17942ft 352kts
20-Mar-11 09:11 34.224913 -116.999533 219 16535ft 344kts
20-Mar-11 09:12 34.150009 -117.069100 218 15129ft 336kts
20-Mar-11 09:13 34.090017 -117.149775 242 13765ft 328kts
20-Mar-11 09:14 34.047785 -117.245432 252 12357ft 320kts
20-Mar-11 09:15 34.038593 -117.348854 264 11030ft 314kts
20-Mar-11 09:16 34.029008 -117.451649 264 9753ft 307kts
20-Mar-11 09:17 34.019511 -117.554437 264 9745ft 308kts
20-Mar-11 09:18 34.010731 -117.647011 263 9757ft 308kts
20-Mar-11 09:19 34.001394 -117.746423 263 9766ft 308kts
20-Mar-11 09:20 33.991583 -117.849973 263 10411ft 312kts
20-Mar-11 09:21 33.986074 -117.949958 266 8915ft 288kts
20-Mar-11 09:22 33.973055 -118.040851 262 8006ft 271kts
20-Mar-11 09:23 33.960432 -118.110197 254 7999ft 278kts
20-Mar-11 09:24 33.942876 -118.200264 254 7408ft 282kts
20-Mar-11 09:25 33.924983 -118.292004 255 6417ft 280kts
20-Mar-11 09:26 33.908054 -118.379193 255 5334ft 278kts
20-Mar-11 09:27 33.890948 -118.467776 256 3949ft 272kts
20-Mar-11 09:28 33.874087 -118.555971 256 3798ft 269kts
20-Mar-11 09:29 33.885335 -118.623849 349 3857ft 266kts
20-Mar-11 09:30 33.919845 -118.576505 84 3450ft 225kts
20-Mar-11 09:31 33.927038 -118.505369 82 2132ft 207kts
20-Mar-11 09:32 33.934053 -118.436950 82 473ft 202kts
20-Mar-11 09:33 33.938133 -118.397218 83 143ft 39kts
20-Mar-11 09:34 33.940001 -118.396343 250 143ft 9kts
20-Mar-11 09:35 33.941252 -118.396365 71 143ft 0kts
20-Mar-11 09:36 33.941252 -118.396365 71 143ft 0kts
20-Mar-11 09:37 33.941252 -118.396365 71 143ft 0kts
20-Mar-11 09:38 33.941252 -118.396365 71 143ft 0kts
20-Mar-11 09:39 33.941252 -118.396365 71 143ft 0kts
20-Mar-11 09:40 33.941252 -118.396365 71 143ft 0kts
20-Mar-11 09:41 33.941252 -118.396365 71 143ft 0kts

Navigation Log

Ident Type
Flight plan parsing failed, navigation log unavailable